sensor_id;sensor_type;location;lat;lon;timestamp;temperature;humidity
8402;DHT22;4238;48.404;9.498;2022-08-16T00:00:29;13.80;99.90
8402;DHT22;4238;48.404;9.498;2022-08-16T00:02:59;13.80;99.90
8402;DHT22;4238;48.404;9.498;2022-08-16T00:05:26;13.80;99.90
8402;DHT22;4238;48.404;9.498;2022-08-16T00:07:56;13.90;99.90
8402;DHT22;4238;48.404;9.498;2022-08-16T00:10:26;13.80;99.90
8402;DHT22;4238;48.404;9.498;2022-08-16T00:12:53;13.80;99.90
8402;DHT22;4238;48.404;9.498;2022-08-16T00:15:23;13.80;99.90
8402;DHT22;4238;48.404;9.498;2022-08-16T00:17:51;13.80;99.90
8402;DHT22;4238;48.404;9.498;2022-08-16T00:20:18;13.80;99.90
8402;DHT22;4238;48.404;9.498;2022-08-16T00:22:46;13.70;99.90
8402;DHT22;4238;48.404;9.498;2022-08-16T00:25:18;13.60;99.90
8402;DHT22;4238;48.404;9.498;2022-08-16T00:27:46;13.60;99.90
8402;DHT22;4238;48.404;9.498;2022-08-16T00:30:14;13.60;99.90
8402;DHT22;4238;48.404;9.498;2022-08-16T00:32:44;13.60;99.90
8402;DHT22;4238;48.404;9.498;2022-08-16T00:35:13;13.50;99.90
8402;DHT22;4238;48.404;9.498;2022-08-16T00:37:41;13.60;99.90
8402;DHT22;4238;48.404;9.498;2022-08-16T00:40:09;13.60;99.90
8402;DHT22;4238;48.404;9.498;2022-08-16T00:42:38;13.50;99.90
8402;DHT22;4238;48.404;9.498;2022-08-16T00:45:14;13.60;99.90
8402;DHT22;4238;48.404;9.498;2022-08-16T00:47:44;13.70;99.90
8402;DHT22;4238;48.404;9.498;2022-08-16T00:50:13;13.80;99.90
8402;DHT22;4238;48.404;9.498;2022-08-16T00:52:40;13.80;99.90
8402;DHT22;4238;48.404;9.498;2022-08-16T00:55:07;13.80;99.90
8402;DHT22;4238;48.404;9.498;2022-08-16T00:57:35;13.90;99.90
8402;DHT22;4238;48.404;9.498;2022-08-16T01:00:06;14.00;99.90
8402;DHT22;4238;48.404;9.498;2022-08-16T01:02:34;14.00;99.90
8402;DHT22;4238;48.404;9.498;2022-08-16T01:05:01;14.10;99.90
8402;DHT22;4238;48.404;9.498;2022-08-16T01:07:28;14.20;99.90
8402;DHT22;4238;48.404;9.498;2022-08-16T01:09:55;14.30;99.90
8402;DHT22;4238;48.404;9.498;2022-08-16T01:12:23;14.40;99.90
8402;DHT22;4238;48.404;9.498;2022-08-16T01:14:53;14.40;99.90
8402;DHT22;4238;48.404;9.498;2022-08-16T01:17:24;14.30;99.90
8402;DHT22;4238;48.404;9.498;2022-08-16T01:19:55;14.30;99.90
8402;DHT22;4238;48.404;9.498;2022-08-16T01:22:29;14.20;99.90
8402;DHT22;4238;48.404;9.498;2022-08-16T01:25:00;14.20;99.90
8402;DHT22;4238;48.404;9.498;2022-08-16T01:27:32;14.20;99.90
8402;DHT22;4238;48.404;9.498;2022-08-16T01:30:07;14.10;99.90
8402;DHT22;4238;48.404;9.498;2022-08-16T01:32:37;14.10;99.90
8402;DHT22;4238;48.404;9.498;2022-08-16T01:35:10;14.00;99.90
8402;DHT22;4238;48.404;9.498;2022-08-16T01:37:42;14.00;99.90
8402;DHT22;4238;48.404;9.498;2022-08-16T01:40:12;14.00;99.90
8402;DHT22;4238;48.404;9.498;2022-08-16T01:42:40;13.90;99.90
8402;DHT22;4238;48.404;9.498;2022-08-16T01:45:07;13.90;99.90
8402;DHT22;4238;48.404;9.498;2022-08-16T01:47:36;14.10;99.90
8402;DHT22;4238;48.404;9.498;2022-08-16T01:50:05;13.90;99.90
8402;DHT22;4238;48.404;9.498;2022-08-16T01:52:33;13.90;99.90
8402;DHT22;4238;48.404;9.498;2022-08-16T01:55:03;13.90;99.90
8402;DHT22;4238;48.404;9.498;2022-08-16T01:57:32;13.80;99.90
8402;DHT22;4238;48.404;9.498;2022-08-16T02:00:00;13.80;99.90
8402;DHT22;4238;48.404;9.498;2022-08-16T02:02:27;13.80;99.90
8402;DHT22;4238;48.404;9.498;2022-08-16T02:04:55;13.80;99.90
8402;DHT22;4238;48.404;9.498;2022-08-16T02:07:22;13.80;99.90
8402;DHT22;4238;48.404;9.498;2022-08-16T02:09:49;13.80;99.90
8402;DHT22;4238;48.404;9.498;2022-08-16T02:12:16;13.70;99.90
8402;DHT22;4238;48.404;9.498;2022-08-16T02:14:45;13.60;99.90
8402;DHT22;4238;48.404;9.498;2022-08-16T02:17:12;13.60;99.90
8402;DHT22;4238;48.404;9.498;2022-08-16T02:19:41;13.60;99.90
8402;DHT22;4238;48.404;9.498;2022-08-16T02:22:11;13.60;99.90
8402;DHT22;4238;48.404;9.498;2022-08-16T02:24:39;13.50;99.90
8402;DHT22;4238;48.404;9.498;2022-08-16T02:27:07;13.50;99.90
8402;DHT22;4238;48.404;9.498;2022-08-16T02:29:34;13.50;99.90
8402;DHT22;4238;48.404;9.498;2022-08-16T02:32:04;13.40;99.90
8402;DHT22;4238;48.404;9.498;2022-08-16T02:34:31;13.30;99.90
8402;DHT22;4238;48.404;9.498;2022-08-16T02:36:58;13.40;99.90
8402;DHT22;4238;48.404;9.498;2022-08-16T02:39:25;13.50;99.90
8402;DHT22;4238;48.404;9.498;2022-08-16T02:41:53;13.60;99.90
8402;DHT22;4238;48.404;9.498;2022-08-16T02:44:21;13.60;99.90
8402;DHT22;4238;48.404;9.498;2022-08-16T02:46:48;13.70;99.90
8402;DHT22;4238;48.404;9.498;2022-08-16T02:49:17;13.60;99.90
8402;DHT22;4238;48.404;9.498;2022-08-16T02:51:44;13.60;99.90
8402;DHT22;4238;48.404;9.498;2022-08-16T02:54:11;13.50;99.90
8402;DHT22;4238;48.404;9.498;2022-08-16T02:56:40;13.40;99.90
8402;DHT22;4238;48.404;9.498;2022-08-16T02:59:07;13.50;99.90
8402;DHT22;4238;48.404;9.498;2022-08-16T03:01:35;13.50;99.90
8402;DHT22;4238;48.404;9.498;2022-08-16T03:04:04;13.60;99.90
8402;DHT22;4238;48.404;9.498;2022-08-16T03:06:33;13.50;99.90
8402;DHT22;4238;48.404;9.498;2022-08-16T03:09:00;13.40;99.90
8402;DHT22;4238;48.404;9.498;2022-08-16T03:11:28;13.40;99.90
8402;DHT22;4238;48.404;9.498;2022-08-16T03:13:55;13.40;99.90
8402;DHT22;4238;48.404;9.498;2022-08-16T03:16:24;13.30;99.90
8402;DHT22;4238;48.404;9.498;2022-08-16T03:18:51;13.20;99.90
8402;DHT22;4238;48.404;9.498;2022-08-16T03:21:19;13.10;99.90
8402;DHT22;4238;48.404;9.498;2022-08-16T03:23:47;13.20;99.90
8402;DHT22;4238;48.404;9.498;2022-08-16T03:26:14;13.20;99.90
8402;DHT22;4238;48.404;9.498;2022-08-16T03:28:42;13.20;99.90
8402;DHT22;4238;48.404;9.498;2022-08-16T03:31:09;13.20;99.90
8402;DHT22;4238;48.404;9.498;2022-08-16T03:33:36;13.10;99.90
8402;DHT22;4238;48.404;9.498;2022-08-16T03:36:04;13.10;99.90
8402;DHT22;4238;48.404;9.498;2022-08-16T03:38:33;13.10;99.90
8402;DHT22;4238;48.404;9.498;2022-08-16T03:41:02;13.00;99.90
8402;DHT22;4238;48.404;9.498;2022-08-16T03:43:30;13.10;99.90
8402;DHT22;4238;48.404;9.498;2022-08-16T03:45:57;13.00;99.90
8402;DHT22;4238;48.404;9.498;2022-08-16T03:48:26;13.10;99.90
8402;DHT22;4238;48.404;9.498;2022-08-16T03:50:53;13.10;99.90
8402;DHT22;4238;48.404;9.498;2022-08-16T03:53:20;13.10;99.90
8402;DHT22;4238;48.404;9.498;2022-08-16T03:55:47;13.00;99.90
8402;DHT22;4238;48.404;9.498;2022-08-16T03:58:16;13.10;99.90
8402;DHT22;4238;48.404;9.498;2022-08-16T04:00:43;13.00;99.90
8402;DHT22;4238;48.404;9.498;2022-08-16T04:03:10;13.20;99.90
8402;DHT22;4238;48.404;9.498;2022-08-16T04:05:40;13.30;99.90
8402;DHT22;4238;48.404;9.498;2022-08-16T04:08:08;13.60;99.90
8402;DHT22;4238;48.404;9.498;2022-08-16T04:10:35;13.80;99.90
8402;DHT22;4238;48.404;9.498;2022-08-16T04:13:02;13.90;99.90
8402;DHT22;4238;48.404;9.498;2022-08-16T04:15:30;14.10;99.90
8402;DHT22;4238;48.404;9.498;2022-08-16T04:17:57;14.20;99.90
8402;DHT22;4238;48.404;9.498;2022-08-16T04:20:26;14.30;99.90
8402;DHT22;4238;48.404;9.498;2022-08-16T04:22:54;14.40;99.90
8402;DHT22;4238;48.404;9.498;2022-08-16T04:25:22;14.40;99.90
8402;DHT22;4238;48.404;9.498;2022-08-16T04:27:49;14.30;99.90
8402;DHT22;4238;48.404;9.498;2022-08-16T04:30:18;14.10;99.90
8402;DHT22;4238;48.404;9.498;2022-08-16T04:32:48;14.00;99.90
8402;DHT22;4238;48.404;9.498;2022-08-16T04:35:17;14.00;99.90
8402;DHT22;4238;48.404;9.498;2022-08-16T04:37:45;14.00;99.90
8402;DHT22;4238;48.404;9.498;2022-08-16T04:40:13;14.00;99.90
8402;DHT22;4238;48.404;9.498;2022-08-16T04:42:40;14.00;99.90
8402;DHT22;4238;48.404;9.498;2022-08-16T04:45:09;14.00;99.90
8402;DHT22;4238;48.404;9.498;2022-08-16T04:47:38;13.90;99.90
8402;DHT22;4238;48.404;9.498;2022-08-16T04:50:09;13.70;99.90
8402;DHT22;4238;48.404;9.498;2022-08-16T04:52:37;13.70;99.90
8402;DHT22;4238;48.404;9.498;2022-08-16T04:55:06;13.60;99.90
8402;DHT22;4238;48.404;9.498;2022-08-16T04:57:34;13.60;99.90
8402;DHT22;4238;48.404;9.498;2022-08-16T05:00:02;13.50;99.90
8402;DHT22;4238;48.404;9.498;2022-08-16T05:02:29;13.70;99.90
8402;DHT22;4238;48.404;9.498;2022-08-16T05:04:56;13.70;99.90
8402;DHT22;4238;48.404;9.498;2022-08-16T05:07:24;13.70;99.90
8402;DHT22;4238;48.404;9.498;2022-08-16T05:09:51;13.70;99.90
8402;DHT22;4238;48.404;9.498;2022-08-16T05:12:18;13.70;99.90
8402;DHT22;4238;48.404;9.498;2022-08-16T05:14:45;13.80;99.90
8402;DHT22;4238;48.404;9.498;2022-08-16T05:17:12;13.90;99.90
8402;DHT22;4238;48.404;9.498;2022-08-16T05:19:39;14.00;99.90
8402;DHT22;4238;48.404;9.498;2022-08-16T05:22:06;14.20;99.90
8402;DHT22;4238;48.404;9.498;2022-08-16T05:24:34;14.30;99.90
8402;DHT22;4238;48.404;9.498;2022-08-16T05:27:01;14.40;99.90
8402;DHT22;4238;48.404;9.498;2022-08-16T05:29:28;14.60;99.90
8402;DHT22;4238;48.404;9.498;2022-08-16T05:31:55;14.70;99.90
8402;DHT22;4238;48.404;9.498;2022-08-16T05:34:22;14.70;99.90
8402;DHT22;4238;48.404;9.498;2022-08-16T05:36:49;14.90;99.90
8402;DHT22;4238;48.404;9.498;2022-08-16T05:39:18;15.10;99.90
8402;DHT22;4238;48.404;9.498;2022-08-16T05:41:46;15.20;99.90
8402;DHT22;4238;48.404;9.498;2022-08-16T05:44:14;15.40;99.90
8402;DHT22;4238;48.404;9.498;2022-08-16T05:46:41;15.50;99.90
8402;DHT22;4238;48.404;9.498;2022-08-16T05:49:10;15.70;99.90
8402;DHT22;4238;48.404;9.498;2022-08-16T05:51:38;15.80;99.90
8402;DHT22;4238;48.404;9.498;2022-08-16T05:54:05;16.00;99.90
8402;DHT22;4238;48.404;9.498;2022-08-16T05:56:32;16.20;99.90
8402;DHT22;4238;48.404;9.498;2022-08-16T05:59:00;16.40;99.90
8402;DHT22;4238;48.404;9.498;2022-08-16T06:01:27;16.60;99.90
8402;DHT22;4238;48.404;9.498;2022-08-16T06:03:54;16.80;99.90
8402;DHT22;4238;48.404;9.498;2022-08-16T06:06:21;17.00;99.90
8402;DHT22;4238;48.404;9.498;2022-08-16T06:08:48;17.20;99.90
8402;DHT22;4238;48.404;9.498;2022-08-16T06:11:15;17.50;97.00
8402;DHT22;4238;48.404;9.498;2022-08-16T06:13:42;17.60;94.20
8402;DHT22;4238;48.404;9.498;2022-08-16T06:16:11;17.80;92.10
8402;DHT22;4238;48.404;9.498;2022-08-16T06:18:38;18.00;91.70
8402;DHT22;4238;48.404;9.498;2022-08-16T06:21:05;18.20;84.00
8402;DHT22;4238;48.404;9.498;2022-08-16T06:23:32;18.50;72.00
8402;DHT22;4238;48.404;9.498;2022-08-16T06:25:59;18.70;42.00
8402;DHT22;4238;48.404;9.498;2022-08-16T06:28:26;18.90;49.80
8402;DHT22;4238;48.404;9.498;2022-08-16T06:30:53;19.00;41.00
8402;DHT22;4238;48.404;9.498;2022-08-16T06:33:21;19.20;38.30
8402;DHT22;4238;48.404;9.498;2022-08-16T06:35:49;19.40;26.20
8402;DHT22;4238;48.404;9.498;2022-08-16T06:38:16;19.60;13.90
8402;DHT22;4238;48.404;9.498;2022-08-16T06:40:43;19.70;11.00
8402;DHT22;4238;48.404;9.498;2022-08-16T06:43:10;19.80;3.50
8402;DHT22;4238;48.404;9.498;2022-08-16T06:45:37;19.90;7.10
8402;DHT22;4238;48.404;9.498;2022-08-16T06:48:05;20.00;1.00
8402;DHT22;4238;48.404;9.498;2022-08-16T06:50:34;20.20;1.00
8402;DHT22;4238;48.404;9.498;2022-08-16T06:53:01;20.30;1.00
8402;DHT22;4238;48.404;9.498;2022-08-16T06:55:28;20.40;1.00
8402;DHT22;4238;48.404;9.498;2022-08-16T06:57:55;20.50;1.00
8402;DHT22;4238;48.404;9.498;2022-08-16T07:00:23;20.70;1.00
8402;DHT22;4238;48.404;9.498;2022-08-16T07:02:51;20.80;1.00
8402;DHT22;4238;48.404;9.498;2022-08-16T07:05:19;21.10;1.00
8402;DHT22;4238;48.404;9.498;2022-08-16T07:07:48;21.20;1.00
8402;DHT22;4238;48.404;9.498;2022-08-16T07:10:17;21.20;1.00
8402;DHT22;4238;48.404;9.498;2022-08-16T07:12:45;21.30;1.00
8402;DHT22;4238;48.404;9.498;2022-08-16T07:15:15;21.50;1.00
8402;DHT22;4238;48.404;9.498;2022-08-16T07:17:42;21.70;1.00
8402;DHT22;4238;48.404;9.498;2022-08-16T07:20:10;21.80;1.00
8402;DHT22;4238;48.404;9.498;2022-08-16T07:22:38;21.90;1.00
8402;DHT22;4238;48.404;9.498;2022-08-16T07:25:09;21.80;99.90
8402;DHT22;4238;48.404;9.498;2022-08-16T07:27:37;21.90;1.00
8402;DHT22;4238;48.404;9.498;2022-08-16T07:30:07;22.00;1.00
8402;DHT22;4238;48.404;9.498;2022-08-16T07:32:34;22.20;99.90
8402;DHT22;4238;48.404;9.498;2022-08-16T07:35:01;21.90;99.90
8402;DHT22;4238;48.404;9.498;2022-08-16T07:37:28;22.20;1.00
8402;DHT22;4238;48.404;9.498;2022-08-16T07:39:55;22.60;1.00
8402;DHT22;4238;48.404;9.498;2022-08-16T07:42:23;22.80;1.00
8402;DHT22;4238;48.404;9.498;2022-08-16T07:44:50;22.90;99.90
8402;DHT22;4238;48.404;9.498;2022-08-16T07:47:17;23.10;99.90
8402;DHT22;4238;48.404;9.498;2022-08-16T07:49:44;23.20;1.00
8402;DHT22;4238;48.404;9.498;2022-08-16T07:52:10;23.30;1.00
8402;DHT22;4238;48.404;9.498;2022-08-16T07:54:37;23.30;99.90
8402;DHT22;4238;48.404;9.498;2022-08-16T07:57:04;23.60;99.90
8402;DHT22;4238;48.404;9.498;2022-08-16T07:59:33;23.70;99.90
8402;DHT22;4238;48.404;9.498;2022-08-16T08:02:00;23.80;1.00
8402;DHT22;4238;48.404;9.498;2022-08-16T08:04:28;24.00;14.20
8402;DHT22;4238;48.404;9.498;2022-08-16T08:06:57;24.10;99.90
8402;DHT22;4238;48.404;9.498;2022-08-16T08:09:24;24.30;1.00
8402;DHT22;4238;48.404;9.498;2022-08-16T08:11:51;24.40;1.00
8402;DHT22;4238;48.404;9.498;2022-08-16T08:14:18;24.30;99.90
8402;DHT22;4238;48.404;9.498;2022-08-16T08:16:48;24.00;99.90
8402;DHT22;4238;48.404;9.498;2022-08-16T08:19:16;23.60;92.20
8402;DHT22;4238;48.404;9.498;2022-08-16T08:21:43;23.70;99.90
8402;DHT22;4238;48.404;9.498;2022-08-16T08:24:12;24.10;99.90
8402;DHT22;4238;48.404;9.498;2022-08-16T08:26:39;24.50;1.00
8402;DHT22;4238;48.404;9.498;2022-08-16T08:29:07;24.40;1.00
8402;DHT22;4238;48.404;9.498;2022-08-16T08:31:34;24.50;99.90
8402;DHT22;4238;48.404;9.498;2022-08-16T08:34:03;24.70;99.90
8402;DHT22;4238;48.404;9.498;2022-08-16T08:36:33;25.10;99.90
8402;DHT22;4238;48.404;9.498;2022-08-16T08:39:01;24.90;1.00
8402;DHT22;4238;48.404;9.498;2022-08-16T08:41:29;25.00;1.00
8402;DHT22;4238;48.404;9.498;2022-08-16T08:43:56;25.30;99.90
8402;DHT22;4238;48.404;9.498;2022-08-16T08:46:24;25.40;99.90
8402;DHT22;4238;48.404;9.498;2022-08-16T08:48:53;25.40;99.90
8402;DHT22;4238;48.404;9.498;2022-08-16T08:51:21;25.30;99.90
8402;DHT22;4238;48.404;9.498;2022-08-16T08:53:50;25.90;87.10
8402;DHT22;4238;48.404;9.498;2022-08-16T08:56:17;25.90;1.00
8402;DHT22;4238;48.404;9.498;2022-08-16T08:58:44;25.60;1.00
8402;DHT22;4238;48.404;9.498;2022-08-16T09:01:11;25.20;1.00
8402;DHT22;4238;48.404;9.498;2022-08-16T09:03:39;24.90;1.00
8402;DHT22;4238;48.404;9.498;2022-08-16T09:06:06;25.10;99.90
8402;DHT22;4238;48.404;9.498;2022-08-16T09:08:35;25.20;99.90
8402;DHT22;4238;48.404;9.498;2022-08-16T09:11:02;25.50;63.10
8402;DHT22;4238;48.404;9.498;2022-08-16T09:13:30;25.70;1.00
8402;DHT22;4238;48.404;9.498;2022-08-16T09:15:58;26.00;1.00
8402;DHT22;4238;48.404;9.498;2022-08-16T09:18:26;26.20;1.00
8402;DHT22;4238;48.404;9.498;2022-08-16T09:20:54;26.40;1.00
8402;DHT22;4238;48.404;9.498;2022-08-16T09:23:22;26.50;99.90
8402;DHT22;4238;48.404;9.498;2022-08-16T09:25:51;26.30;1.00
8402;DHT22;4238;48.404;9.498;2022-08-16T09:28:18;25.70;99.90
8402;DHT22;4238;48.404;9.498;2022-08-16T09:30:45;25.50;1.00
8402;DHT22;4238;48.404;9.498;2022-08-16T09:33:14;26.00;1.00
8402;DHT22;4238;48.404;9.498;2022-08-16T09:35:43;25.80;1.00
8402;DHT22;4238;48.404;9.498;2022-08-16T09:38:11;25.80;99.90
8402;DHT22;4238;48.404;9.498;2022-08-16T09:40:38;26.10;99.90
8402;DHT22;4238;48.404;9.498;2022-08-16T09:43:09;25.80;99.90
8402;DHT22;4238;48.404;9.498;2022-08-16T09:45:36;25.70;1.00
8402;DHT22;4238;48.404;9.498;2022-08-16T09:48:08;26.10;1.00
8402;DHT22;4238;48.404;9.498;2022-08-16T09:50:35;26.30;1.00
8402;DHT22;4238;48.404;9.498;2022-08-16T09:53:06;26.20;99.90
8402;DHT22;4238;48.404;9.498;2022-08-16T09:55:33;26.20;99.90
8402;DHT22;4238;48.404;9.498;2022-08-16T09:58:00;26.60;99.90
8402;DHT22;4238;48.404;9.498;2022-08-16T10:00:28;26.50;99.90
8402;DHT22;4238;48.404;9.498;2022-08-16T10:02:55;27.10;99.90
8402;DHT22;4238;48.404;9.498;2022-08-16T10:05:23;27.20;99.90
8402;DHT22;4238;48.404;9.498;2022-08-16T10:07:50;27.40;99.90
8402;DHT22;4238;48.404;9.498;2022-08-16T10:10:19;27.60;96.20
8402;DHT22;4238;48.404;9.498;2022-08-16T10:12:46;27.80;6.10
8402;DHT22;4238;48.404;9.498;2022-08-16T10:15:32;27.60;1.00
8402;DHT22;4238;48.404;9.498;2022-08-16T10:18:01;27.60;1.00
8402;DHT22;4238;48.404;9.498;2022-08-16T10:20:33;27.10;1.00
8402;DHT22;4238;48.404;9.498;2022-08-16T10:23:00;27.20;1.00
8402;DHT22;4238;48.404;9.498;2022-08-16T10:25:27;27.20;1.00
8402;DHT22;4238;48.404;9.498;2022-08-16T10:27:56;27.30;1.00
8402;DHT22;4238;48.404;9.498;2022-08-16T10:30:25;27.40;1.00
8402;DHT22;4238;48.404;9.498;2022-08-16T10:32:54;27.30;1.00
8402;DHT22;4238;48.404;9.498;2022-08-16T10:35:21;26.80;1.00
8402;DHT22;4238;48.404;9.498;2022-08-16T10:37:48;26.40;1.00
8402;DHT22;4238;48.404;9.498;2022-08-16T10:40:15;27.00;26.60
8402;DHT22;4238;48.404;9.498;2022-08-16T10:42:43;27.20;1.00
8402;DHT22;4238;48.404;9.498;2022-08-16T10:45:10;27.60;1.00
8402;DHT22;4238;48.404;9.498;2022-08-16T10:47:37;27.60;1.00
8402;DHT22;4238;48.404;9.498;2022-08-16T10:50:07;25.90;1.00
8402;DHT22;4238;48.404;9.498;2022-08-16T10:52:34;25.70;1.00
8402;DHT22;4238;48.404;9.498;2022-08-16T10:55:01;25.00;1.00
8402;DHT22;4238;48.404;9.498;2022-08-16T10:57:29;24.70;90.10
8402;DHT22;4238;48.404;9.498;2022-08-16T10:59:57;24.50;99.90
8402;DHT22;4238;48.404;9.498;2022-08-16T11:02:24;25.00;99.90
8402;DHT22;4238;48.404;9.498;2022-08-16T11:04:52;25.60;99.90
8402;DHT22;4238;48.404;9.498;2022-08-16T11:07:20;26.60;99.90
8402;DHT22;4238;48.404;9.498;2022-08-16T11:09:47;27.00;13.70
8402;DHT22;4238;48.404;9.498;2022-08-16T11:12:14;26.80;1.00
8402;DHT22;4238;48.404;9.498;2022-08-16T11:14:41;26.50;1.00
8402;DHT22;4238;48.404;9.498;2022-08-16T11:17:08;25.90;1.00
8402;DHT22;4238;48.404;9.498;2022-08-16T11:19:35;25.60;51.70
8402;DHT22;4238;48.404;9.498;2022-08-16T11:22:02;25.70;99.90
8402;DHT22;4238;48.404;9.498;2022-08-16T11:24:30;25.60;19.20
8402;DHT22;4238;48.404;9.498;2022-08-16T11:26:57;25.30;1.00
8402;DHT22;4238;48.404;9.498;2022-08-16T11:29:25;25.10;33.80
8402;DHT22;4238;48.404;9.498;2022-08-16T11:31:55;24.90;71.60
8402;DHT22;4238;48.404;9.498;2022-08-16T11:34:21;25.40;99.90
8402;DHT22;4238;48.404;9.498;2022-08-16T11:36:48;25.60;1.00
8402;DHT22;4238;48.404;9.498;2022-08-16T11:39:16;25.60;1.00
8402;DHT22;4238;48.404;9.498;2022-08-16T11:41:45;25.10;1.00
8402;DHT22;4238;48.404;9.498;2022-08-16T11:44:12;24.70;99.90
8402;DHT22;4238;48.404;9.498;2022-08-16T11:46:39;24.80;99.90
8402;DHT22;4238;48.404;9.498;2022-08-16T11:49:06;25.00;99.90
8402;DHT22;4238;48.404;9.498;2022-08-16T11:51:33;25.40;99.90
8402;DHT22;4238;48.404;9.498;2022-08-16T11:53:59;25.50;99.90
8402;DHT22;4238;48.404;9.498;2022-08-16T11:56:27;26.00;99.90
8402;DHT22;4238;48.404;9.498;2022-08-16T11:58:55;26.30;90.20
8402;DHT22;4238;48.404;9.498;2022-08-16T12:01:22;26.80;99.90
8402;DHT22;4238;48.404;9.498;2022-08-16T12:03:49;27.40;1.00
8402;DHT22;4238;48.404;9.498;2022-08-16T12:06:17;27.60;1.00
8402;DHT22;4238;48.404;9.498;2022-08-16T12:08:45;27.60;1.00
8402;DHT22;4238;48.404;9.498;2022-08-16T12:11:13;27.20;1.00
8402;DHT22;4238;48.404;9.498;2022-08-16T12:13:42;26.90;1.00
8402;DHT22;4238;48.404;9.498;2022-08-16T12:16:11;26.70;1.00
8402;DHT22;4238;48.404;9.498;2022-08-16T12:18:39;26.60;1.00
8402;DHT22;4238;48.404;9.498;2022-08-16T12:21:06;26.50;1.00
8402;DHT22;4238;48.404;9.498;2022-08-16T12:23:33;26.10;1.00
8402;DHT22;4238;48.404;9.498;2022-08-16T12:26:00;26.30;1.00
8402;DHT22;4238;48.404;9.498;2022-08-16T12:28:27;26.40;13.30
8402;DHT22;4238;48.404;9.498;2022-08-16T12:30:56;26.40;1.00
8402;DHT22;4238;48.404;9.498;2022-08-16T12:33:24;27.00;1.00
8402;DHT22;4238;48.404;9.498;2022-08-16T12:35:51;27.50;1.00
8402;DHT22;4238;48.404;9.498;2022-08-16T12:38:18;28.10;1.00
8402;DHT22;4238;48.404;9.498;2022-08-16T12:40:47;28.30;1.00
8402;DHT22;4238;48.404;9.498;2022-08-16T12:43:16;28.90;1.00
8402;DHT22;4238;48.404;9.498;2022-08-16T12:45:46;29.30;1.00
8402;DHT22;4238;48.404;9.498;2022-08-16T12:48:17;29.40;1.00
8402;DHT22;4238;48.404;9.498;2022-08-16T12:51:04;29.10;1.00
8402;DHT22;4238;48.404;9.498;2022-08-16T12:53:31;28.70;99.90
8402;DHT22;4238;48.404;9.498;2022-08-16T12:56:01;28.30;99.90
8402;DHT22;4238;48.404;9.498;2022-08-16T12:58:28;27.90;99.90
8402;DHT22;4238;48.404;9.498;2022-08-16T13:00:56;27.70;99.90
8402;DHT22;4238;48.404;9.498;2022-08-16T13:03:23;27.80;99.90
8402;DHT22;4238;48.404;9.498;2022-08-16T13:05:50;27.90;99.90
8402;DHT22;4238;48.404;9.498;2022-08-16T13:08:19;28.00;99.90
8402;DHT22;4238;48.404;9.498;2022-08-16T13:10:47;28.40;99.90
8402;DHT22;4238;48.404;9.498;2022-08-16T13:13:16;28.50;99.90
8402;DHT22;4238;48.404;9.498;2022-08-16T13:15:49;28.50;99.90
8402;DHT22;4238;48.404;9.498;2022-08-16T13:18:17;28.60;1.00
8402;DHT22;4238;48.404;9.498;2022-08-16T13:20:44;28.40;99.90
8402;DHT22;4238;48.404;9.498;2022-08-16T13:23:11;28.70;99.90
8402;DHT22;4238;48.404;9.498;2022-08-16T13:25:42;28.90;99.90
8402;DHT22;4238;48.404;9.498;2022-08-16T13:28:10;29.20;99.90
8402;DHT22;4238;48.404;9.498;2022-08-16T13:30:40;29.50;99.90
8402;DHT22;4238;48.404;9.498;2022-08-16T13:33:08;29.30;99.90
8402;DHT22;4238;48.404;9.498;2022-08-16T13:35:35;28.80;99.90
8402;DHT22;4238;48.404;9.498;2022-08-16T13:38:02;28.80;99.90
8402;DHT22;4238;48.404;9.498;2022-08-16T13:40:29;29.10;99.90
8402;DHT22;4238;48.404;9.498;2022-08-16T13:42:59;29.10;99.90
8402;DHT22;4238;48.404;9.498;2022-08-16T13:45:26;29.10;99.90
8402;DHT22;4238;48.404;9.498;2022-08-16T13:47:54;29.00;99.90
8402;DHT22;4238;48.404;9.498;2022-08-16T13:50:21;29.00;99.90
8402;DHT22;4238;48.404;9.498;2022-08-16T13:52:50;29.10;99.90
8402;DHT22;4238;48.404;9.498;2022-08-16T13:55:17;29.20;99.90
8402;DHT22;4238;48.404;9.498;2022-08-16T13:57:44;28.30;99.90
8402;DHT22;4238;48.404;9.498;2022-08-16T14:00:15;28.20;99.90
8402;DHT22;4238;48.404;9.498;2022-08-16T14:02:42;28.20;99.90
8402;DHT22;4238;48.404;9.498;2022-08-16T14:05:10;28.20;99.90
8402;DHT22;4238;48.404;9.498;2022-08-16T14:07:37;27.80;99.90
8402;DHT22;4238;48.404;9.498;2022-08-16T14:10:06;27.30;99.90
8402;DHT22;4238;48.404;9.498;2022-08-16T14:12:34;27.10;99.90
8402;DHT22;4238;48.404;9.498;2022-08-16T14:15:04;27.20;99.90
8402;DHT22;4238;48.404;9.498;2022-08-16T14:17:33;27.30;99.90
8402;DHT22;4238;48.404;9.498;2022-08-16T14:20:00;27.30;99.90
8402;DHT22;4238;48.404;9.498;2022-08-16T14:22:30;27.50;99.90
8402;DHT22;4238;48.404;9.498;2022-08-16T14:24:59;27.70;99.90
8402;DHT22;4238;48.404;9.498;2022-08-16T14:27:28;28.00;99.90
8402;DHT22;4238;48.404;9.498;2022-08-16T14:29:56;28.20;99.90
8402;DHT22;4238;48.404;9.498;2022-08-16T14:32:28;28.30;99.90
8402;DHT22;4238;48.404;9.498;2022-08-16T14:34:58;28.30;99.90
8402;DHT22;4238;48.404;9.498;2022-08-16T14:37:25;28.50;99.90
8402;DHT22;4238;48.404;9.498;2022-08-16T14:39:52;28.30;99.90
8402;DHT22;4238;48.404;9.498;2022-08-16T14:42:22;28.10;99.90
8402;DHT22;4238;48.404;9.498;2022-08-16T14:44:49;28.20;99.90
8402;DHT22;4238;48.404;9.498;2022-08-16T14:47:17;28.40;99.90
8402;DHT22;4238;48.404;9.498;2022-08-16T14:49:44;28.50;99.90
8402;DHT22;4238;48.404;9.498;2022-08-16T14:52:14;28.50;99.90
8402;DHT22;4238;48.404;9.498;2022-08-16T14:54:43;28.50;99.90
8402;DHT22;4238;48.404;9.498;2022-08-16T14:57:11;28.70;99.90
8402;DHT22;4238;48.404;9.498;2022-08-16T14:59:38;28.80;99.90
8402;DHT22;4238;48.404;9.498;2022-08-16T15:02:10;28.90;99.90
8402;DHT22;4238;48.404;9.498;2022-08-16T15:04:40;28.60;99.90
8402;DHT22;4238;48.404;9.498;2022-08-16T15:07:08;28.70;99.90
8402;DHT22;4238;48.404;9.498;2022-08-16T15:09:37;28.70;99.90
8402;DHT22;4238;48.404;9.498;2022-08-16T15:12:05;28.80;99.90
8402;DHT22;4238;48.404;9.498;2022-08-16T15:14:32;29.10;99.90
8402;DHT22;4238;48.404;9.498;2022-08-16T15:17:01;29.10;99.90
8402;DHT22;4238;48.404;9.498;2022-08-16T15:19:28;29.10;99.90
8402;DHT22;4238;48.404;9.498;2022-08-16T15:21:55;29.20;99.90
8402;DHT22;4238;48.404;9.498;2022-08-16T15:24:22;29.00;99.90
8402;DHT22;4238;48.404;9.498;2022-08-16T15:26:51;29.00;99.90
8402;DHT22;4238;48.404;9.498;2022-08-16T15:29:18;28.70;99.90
8402;DHT22;4238;48.404;9.498;2022-08-16T15:31:46;28.60;99.90
8402;DHT22;4238;48.404;9.498;2022-08-16T15:34:13;28.30;99.90
8402;DHT22;4238;48.404;9.498;2022-08-16T15:36:40;28.30;99.90
8402;DHT22;4238;48.404;9.498;2022-08-16T15:39:07;28.30;99.90
8402;DHT22;4238;48.404;9.498;2022-08-16T15:41:56;28.40;99.90
8402;DHT22;4238;48.404;9.498;2022-08-16T15:44:24;28.50;99.90
8402;DHT22;4238;48.404;9.498;2022-08-16T15:46:55;28.50;99.90
8402;DHT22;4238;48.404;9.498;2022-08-16T15:49:22;27.90;99.90
8402;DHT22;4238;48.404;9.498;2022-08-16T15:51:49;28.00;99.90
8402;DHT22;4238;48.404;9.498;2022-08-16T15:54:16;28.10;99.90
8402;DHT22;4238;48.404;9.498;2022-08-16T15:56:43;28.10;99.90
8402;DHT22;4238;48.404;9.498;2022-08-16T15:59:11;28.10;99.90
8402;DHT22;4238;48.404;9.498;2022-08-16T16:01:38;28.10;99.90
8402;DHT22;4238;48.404;9.498;2022-08-16T16:04:05;28.10;99.90
8402;DHT22;4238;48.404;9.498;2022-08-16T16:06:32;28.10;99.90
8402;DHT22;4238;48.404;9.498;2022-08-16T16:08:59;28.20;99.90